Time;durP1;ratioP1;P1;durP2;ratioP2;P2;SDS_P1;SDS_P2;PMS_P1;PMS_P2;Temp;Humidity;BMP_temperature;BMP_pressure;BME280_temperature;BME280_humidity;BME280_pressure;Samples;Min_cycle;Max_cycle;Signal;HPM_P1;HPM_P2
2022/12/14 00:01:42;;;;;;;17.50;11.33;;;;;;;1.49;71.05;96941.34;5107621;28;20219;-79
2022/12/14 00:04:15;;;;;;;19.33;10.67;;;;;;;1.46;70.91;96943.09;5107429;28;20187;-78
2022/12/14 00:06:43;;;;;;;16.90;11.30;;;;;;;1.34;71.16;96943.25;5106998;28;20241;-78
2022/12/14 00:09:09;;;;;;;22.37;10.67;;;;;;;1.27;71.24;96934.81;5123507;27;20206;-79
2022/12/14 00:11:36;;;;;;;17.30;10.57;;;;;;;1.33;70.34;96941.53;5107001;28;20247;-78
2022/12/14 00:14:04;;;;;;;18.67;10.77;;;;;;;1.36;71.13;96934.69;5107142;28;20258;-79
2022/12/14 00:16:33;;;;;;;19.77;11.27;;;;;;;1.30;70.86;96939.03;5106828;28;20211;-79
2022/12/14 00:19:00;;;;;;;18.10;11.27;;;;;;;1.37;71.12;96938.09;5107116;28;20222;-80
2022/12/14 00:21:28;;;;;;;19.77;11.67;;;;;;;1.49;72.06;96937.94;5107012;28;20620;-80
2022/12/14 00:24:00;;;;;;;16.97;11.13;;;;;;;1.61;70.76;96940.34;5106964;28;20180;-80
2022/12/14 00:26:31;;;;;;;17.80;10.57;;;;;;;1.70;70.54;96926.63;5089217;28;20195;-78
2022/12/14 00:29:00;;;;;;;19.50;11.27;;;;;;;1.54;70.04;96937.03;5106879;28;20274;-81
2022/12/14 00:31:28;;;;;;;18.63;11.63;;;;;;;1.50;70.60;96935.41;5107651;28;20180;-78
2022/12/14 00:33:55;;;;;;;19.43;10.73;;;;;;;1.47;71.25;96924.38;5088421;28;20805;-78
2022/12/14 00:36:23;;;;;;;19.23;11.33;;;;;;;1.46;71.43;96920.13;5106625;28;20276;-78
2022/12/14 00:38:49;;;;;;;17.33;10.30;;;;;;;1.34;71.05;96922.84;5106823;28;20194;-78
2022/12/14 00:41:17;;;;;;;18.67;11.10;;;;;;;1.31;72.24;96915.22;5088523;28;20260;-79
2022/12/14 00:43:43;;;;;;;14.33;9.70;;;;;;;1.33;71.23;96911.78;5088790;28;20183;-79
2022/12/14 00:46:15;;;;;;;15.37;10.40;;;;;;;1.32;72.30;96911.81;5106745;28;20268;-78
2022/12/14 00:48:42;;;;;;;14.67;9.93;;;;;;;1.51;71.42;96910.69;5106856;28;20187;-78
2022/12/14 00:51:09;;;;;;;13.53;9.07;;;;;;;1.39;71.54;96901.50;5106804;28;20400;-79
2022/12/14 00:53:36;;;;;;;15.50;8.37;;;;;;;1.50;71.93;96909.88;5122411;28;20962;-79
2022/12/14 00:56:05;;;;;;;15.20;8.67;;;;;;;1.43;71.55;96904.84;5106757;28;20669;-79
2022/12/14 00:58:33;;;;;;;15.00;8.93;;;;;;;1.35;71.17;96921.97;5110923;28;20191;-79
2022/12/14 01:01:20;;;;;;;17.27;9.33;;;;;;;1.26;71.89;96892.31;5111067;28;20184;-79
2022/12/14 01:03:48;;;;;;;14.43;9.20;;;;;;;1.62;72.32;96914.81;5110611;28;20577;-79
2022/12/14 01:06:17;;;;;;;14.87;8.83;;;;;;;1.85;70.97;96900.91;5110825;28;20190;-79
2022/12/14 01:08:45;;;;;;;15.23;9.67;;;;;;;1.95;71.10;96905.00;5110628;28;20227;-79
2022/12/14 01:11:13;;;;;;;13.90;9.00;;;;;;;2.05;70.57;96909.97;5110753;28;20229;-78
2022/12/14 01:13:42;;;;;;;13.87;8.47;;;;;;;2.10;70.91;96897.13;5110484;28;20640;-79
2022/12/14 01:16:13;;;;;;;13.67;8.30;;;;;;;2.11;71.07;96888.59;5110420;28;20250;-78
2022/12/14 01:19:04;;;;;;;13.57;8.67;;;;;;;2.12;71.03;96903.88;5092609;28;20183;-79
2022/12/14 01:21:32;;;;;;;12.77;7.10;;;;;;;2.07;71.63;96900.56;5092309;28;20314;-79
2022/12/14 01:24:01;;;;;;;10.87;6.53;;;;;;;2.11;71.97;96901.34;5110377;28;20194;-79
2022/12/14 01:26:29;;;;;;;8.70;5.77;;;;;;;1.87;72.28;96901.72;5112169;28;20187;-77
2022/12/14 01:28:57;;;;;;;8.77;5.80;;;;;;;1.85;71.48;96906.84;5110860;28;20196;-77
2022/12/14 01:31:29;;;;;;;12.27;6.53;;;;;;;2.04;71.05;96907.44;5110325;28;20271;-78
2022/12/14 01:33:57;;;;;;;8.60;5.70;;;;;;;2.15;70.65;96898.75;5110144;28;20287;-78
2022/12/14 01:36:27;;;;;;;9.77;5.70;;;;;;;2.16;69.29;96903.00;5110507;28;20243;-78
2022/12/14 01:38:56;;;;;;;7.43;5.37;;;;;;;2.16;70.19;96897.03;5110046;28;20195;-78
2022/12/14 01:41:29;;;;;;;8.23;5.70;;;;;;;2.21;68.90;96898.63;5110053;28;20686;-77
2022/12/14 01:44:02;;;;;;;8.43;5.70;;;;;;;2.10;69.03;96889.47;5110420;28;20184;-78
2022/12/14 01:46:43;;;;;;;8.23;5.27;;;;;;;1.92;69.54;96892.28;5110059;28;20184;-77
2022/12/14 01:49:19;;;;;;;9.17;5.57;;;;;;;2.05;69.89;96893.78;5110221;28;20192;-77
2022/12/14 01:52:17;;;;;;;8.97;5.43;;;;;;;2.16;69.73;96899.59;5109938;28;20716;-78
2022/12/14 01:55:13;;;;;;;10.17;5.33;;;;;;;2.22;68.64;96907.16;5108814;27;20650;-78
2022/12/14 01:58:00;;;;;;;8.07;5.30;;;;;;;2.20;68.29;96903.78;5110601;28;20257;-77
2022/12/14 02:00:27;;;;;;;9.33;6.03;;;;;;;2.25;68.48;96904.53;5109642;28;20199;-79
2022/12/14 02:03:11;;;;;;;7.50;5.63;;;;;;;2.19;68.58;96900.38;5109972;28;20650;-78
2022/12/14 02:05:43;;;;;;;8.37;5.37;;;;;;;2.14;68.29;96898.78;5109491;28;20663;-78
2022/12/14 02:08:11;;;;;;;8.10;5.13;;;;;;;2.17;68.51;96904.66;5091198;28;20192;-79
2022/12/14 02:10:39;;;;;;;8.10;5.17;;;;;;;1.93;68.50;96891.41;5125165;27;20219;-80
2022/12/14 02:13:13;;;;;;;11.80;6.73;;;;;;;1.93;69.67;96905.03;5109550;28;20223;-79
2022/12/14 02:15:41;;;;;;;16.53;8.20;;;;;;;1.94;70.77;96905.88;5109616;28;20238;-79
2022/12/14 02:18:30;;;;;;;14.87;8.73;;;;;;;1.75;71.92;96909.56;5093981;28;20713;-79
2022/12/14 02:21:35;;;;;;;17.63;10.27;;;;;;;1.52;73.29;96908.16;5109556;28;20192;-79
2022/12/14 02:24:44;;;;;;;16.13;9.00;;;;;;;1.38;75.12;96910.00;5126563;27;20238;-78
2022/12/14 02:27:48;;;;;;;16.67;9.40;;;;;;;1.56;74.69;96909.81;5088440;28;20204;-80
2022/12/14 02:30:21;;;;;;;11.23;7.80;;;;;;;1.38;74.46;96904.91;5090993;28;20274;-79
2022/12/14 02:33:09;;;;;;;15.00;8.40;;;;;;;1.33;74.75;96908.38;5109554;28;20275;-79
2022/12/14 02:35:58;;;;;;;13.97;9.10;;;;;;;1.47;73.55;96901.41;5109327;28;20672;-79
2022/12/14 02:38:58;;;;;;;13.70;8.53;;;;;;;1.67;75.73;96920.69;5109485;28;20184;-79
2022/12/14 02:41:43;;;;;;;11.93;8.27;;;;;;;1.83;73.57;96917.94;5109425;28;20192;-78
2022/12/14 02:44:32;;;;;;;12.00;8.07;;;;;;;1.96;72.91;96904.16;5108987;28;20183;-77
2022/12/14 02:47:08;;;;;;;12.00;7.57;;;;;;;2.04;69.66;96915.91;5109274;28;20668;-78
2022/12/14 02:49:54;;;;;;;10.03;6.40;;;;;;;2.15;70.27;96911.50;5109294;28;20179;-80
2022/12/14 02:52:28;;;;;;;13.43;7.37;;;;;;;2.01;70.28;96913.44;5108573;28;20279;-78
2022/12/14 02:55:07;;;;;;;9.80;6.73;;;;;;;2.03;69.76;96896.38;5108576;28;20208;-78
2022/12/14 02:57:52;;;;;;;10.77;7.37;;;;;;;2.16;70.49;96912.34;5090509;28;20294;-79
2022/12/14 03:00:19;;;;;;;10.90;7.40;;;;;;;1.91;69.53;96916.97;5108599;28;20750;-79
2022/12/14 03:02:47;;;;;;;11.63;7.20;;;;;;;2.00;70.11;96921.13;5108950;28;20570;-78
2022/12/14 03:05:15;;;;;;;12.17;7.57;;;;;;;2.10;69.67;96923.50;5108422;28;20187;-78
2022/12/14 03:07:54;;;;;;;13.97;8.03;;;;;;;2.30;68.96;96944.50;5109121;28;20194;-79
2022/12/14 03:10:43;;;;;;;11.67;7.47;;;;;;;2.27;69.80;96941.13;5108718;28;20188;-77
2022/12/14 03:13:29;;;;;;;7.87;5.63;;;;;;;2.18;70.58;96946.38;5108695;28;20268;-79
2022/12/14 03:16:21;;;;;;;9.13;5.83;;;;;;;1.92;71.42;96948.44;5108645;28;20188;-78
2022/12/14 03:19:12;;;;;;;14.60;9.10;;;;;;;1.44;76.11;96930.34;5090571;28;20218;-78
2022/12/14 03:21:46;;;;;;;15.43;9.63;;;;;;;1.67;77.05;96942.00;5089843;28;20249;-78
2022/12/14 03:24:20;;;;;;;19.47;10.70;;;;;;;1.56;78.11;96944.66;5123932;27;20188;-78
2022/12/14 03:26:55;;;;;;;19.13;11.63;;;;;;;0.74;81.25;96929.44;5108253;28;20196;-79
2022/12/14 03:29:34;;;;;;;21.13;12.53;;;;;;;1.24;80.03;96942.47;5108422;28;20294;-79
2022/12/14 03:32:09;;;;;;;21.70;12.40;;;;;;;1.02;79.56;96953.78;5108115;28;20187;-78
2022/12/14 03:34:44;;;;;;;21.77;11.90;;;;;;;1.04;79.88;96928.25;5107939;28;20691;-78
2022/12/14 03:37:18;;;;;;;22.00;11.27;;;;;;;1.04;79.36;96929.13;5107808;28;20222;-78
2022/12/14 03:39:46;;;;;;;18.37;10.83;;;;;;;0.94;78.23;96921.56;5107806;28;20230;-79
2022/12/14 03:42:36;;;;;;;18.57;11.37;;;;;;;1.19;79.34;96944.25;5108174;28;20671;-79
2022/12/14 03:45:07;;;;;;;18.17;11.50;;;;;;;1.34;77.98;96938.16;5123298;27;20580;-79
2022/12/14 03:47:46;;;;;;;19.80;11.40;;;;;;;1.41;77.76;96940.59;5107816;28;20306;-80
2022/12/14 03:50:38;;;;;;;17.13;10.60;;;;;;;1.24;78.19;96939.09;5107647;28;20567;-79
2022/12/14 03:53:21;;;;;;;19.13;12.37;;;;;;;1.40;77.71;96922.75;5090949;28;20278;-78
2022/12/14 03:55:54;;;;;;;21.40;12.83;;;;;;;1.44;77.88;96935.44;5089276;28;20278;-79
2022/12/14 03:58:32;;;;;;;17.27;10.73;;;;;;;1.48;76.61;96944.75;5107492;28;20810;-79
2022/12/14 04:01:28;;;;;;;18.17;10.90;;;;;;;1.61;75.81;96946.28;5107658;28;20265;-79
2022/12/14 04:04:03;;;;;;;14.67;9.90;;;;;;;1.57;74.59;96946.34;5107863;28;20210;-80
2022/12/14 04:06:33;;;;;;;17.00;10.50;;;;;;;1.63;75.58;96942.00;5089518;28;20183;-80
2022/12/14 04:09:11;;;;;;;14.97;10.27;;;;;;;1.75;75.04;96943.59;5107596;28;20599;-79
2022/12/14 04:20:26;;;;;;;19.10;10.47;;;;;;;1.64;72.24;96930.09;5106997;28;20199;-80
2022/12/14 04:23:07;;;;;;;19.57;13.07;;;;;;;1.63;71.84;96926.69;5088696;28;20590;-78
2022/12/14 04:31:24;;;;;;;20.07;10.40;;;;;;;1.50;72.53;96909.03;5105979;28;20396;-78
2022/12/14 04:33:56;;;;;;;16.03;10.13;;;;;;;1.45;70.65;96909.09;5108153;28;20843;-79
2022/12/14 04:36:41;;;;;;;14.83;9.30;;;;;;;1.63;69.93;96908.84;5107833;28;20248;-80
2022/12/14 04:39:15;;;;;;;14.57;8.00;;;;;;;1.59;68.12;96907.19;5110080;27;20242;-77
2022/12/14 04:41:48;;;;;;;12.27;7.50;;;;;;;1.68;66.22;96926.66;5107914;28;20220;-79
2022/12/14 04:44:23;;;;;;;21.57;10.50;;;;;;;1.92;68.37;96922.91;5106771;28;20233;-77
2022/12/14 04:46:53;;;;;;;16.30;10.27;;;;;;;2.02;68.91;96902.31;5108085;27;20272;-79
2022/12/14 04:49:28;;;;;;;17.07;10.83;;;;;;;2.12;68.24;96905.63;5110173;27;20600;-79
2022/12/14 04:51:55;;;;;;;32.20;12.90;;;;;;;2.43;67.74;96917.88;5105309;28;20194;-80
2022/12/14 04:55:15;;;;;;;21.63;10.33;;;;;;;2.49;66.79;96917.75;5120202;28;20192;-79
2022/12/14 04:57:47;;;;;;;26.90;11.23;;;;;;;2.44;68.57;96918.72;5060324;28;20227;-80
2022/12/14 05:00:15;;;;;;;29.93;12.63;;;;;;;2.51;68.22;96894.75;5112204;28;20194;-79
2022/12/14 05:03:01;;;;;;;28.43;13.40;;;;;;;2.57;69.93;96915.09;5127095;28;20217;-78
2022/12/14 05:05:40;;;;;;;22.07;12.13;;;;;;;2.66;70.52;96912.38;5127344;28;20225;-79
2022/12/14 05:08:19;;;;;;;21.37;11.87;;;;;;;2.64;71.22;96916.66;5108375;28;20247;-79
2022/12/14 05:11:00;;;;;;;21.80;12.87;;;;;;;2.60;72.10;96915.03;5126656;28;20187;-79
2022/12/14 05:13:49;;;;;;;21.17;12.00;;;;;;;2.60;71.88;96922.69;5127122;28;20272;-79
2022/12/14 05:16:22;;;;;;;33.60;13.47;;;;;;;2.61;71.23;96921.84;5108379;28;20187;-79
2022/12/14 05:18:50;;;;;;;28.57;12.37;;;;;;;2.72;69.56;96925.03;5127328;28;20659;-79
2022/12/14 05:24:03;;;;;;;25.23;12.93;;;;;;;2.75;68.04;96926.72;5127215;28;20281;-79
2022/12/14 05:26:30;;;;;;;27.27;12.10;;;;;;;2.83;66.90;96930.81;5127029;28;20751;-80
2022/12/14 05:28:57;;;;;;;23.23;12.93;;;;;;;2.74;69.41;96928.41;5126628;28;20195;-79
2022/12/14 05:31:24;;;;;;;27.00;13.73;;;;;;;2.62;70.77;96918.41;5126836;28;20211;-79
2022/12/14 05:33:51;;;;;;;26.80;13.57;;;;;;;2.72;71.97;96949.78;5126832;28;20183;-80
2022/12/14 05:36:19;;;;;;;19.50;13.17;;;;;;;2.67;71.89;96951.56;5126724;28;20559;-80
2022/12/14 05:38:49;;;;;;;21.50;12.70;;;;;;;2.69;72.35;96947.28;5126701;28;20282;-81
2022/12/14 05:41:16;;;;;;;18.60;11.43;;;;;;;2.17;73.66;96942.13;5126764;28;20265;-80
2022/12/14 05:43:43;;;;;;;30.27;13.87;;;;;;;2.30;75.07;96943.63;5129378;27;20233;-80
2022/12/14 05:46:14;;;;;;;24.37;12.97;;;;;;;2.20;75.29;96919.97;5130747;27;20666;-81
2022/12/14 05:48:41;;;;;;;35.97;14.87;;;;;;;2.36;74.85;96943.53;5130617;27;20678;-80
2022/12/14 05:51:15;;;;;;;24.60;13.83;;;;;;;2.54;75.09;96960.28;5130356;27;20198;-80
2022/12/14 05:53:42;;;;;;;24.57;12.97;;;;;;;2.38;75.51;96958.00;5112305;27;20274;-80
2022/12/14 05:56:10;;;;;;;35.43;14.40;;;;;;;2.34;74.92;96937.63;5130541;27;20215;-81
2022/12/14 05:58:38;;;;;;;22.77;14.63;;;;;;;2.37;75.26;96950.34;5111746;27;20215;-81
2022/12/14 06:01:08;;;;;;;19.80;11.60;;;;;;;2.32;73.78;96985.34;5130638;27;20779;-78
2022/12/14 06:03:41;;;;;;;21.43;12.23;;;;;;;2.25;72.81;96968.41;5111539;27;20201;-80
2022/12/14 06:06:10;;;;;;;17.73;12.40;;;;;;;2.23;73.13;96970.97;5131937;27;20191;-79
2022/12/14 06:08:40;;;;;;;17.77;11.47;;;;;;;2.15;73.36;96972.81;5112227;27;20580;-78
2022/12/14 06:11:13;;;;;;;19.00;10.53;;;;;;;1.97;73.88;96962.00;5095104;27;20187;-80
2022/12/14 06:13:41;;;;;;;16.30;9.53;;;;;;;2.07;73.98;96961.00;5111574;27;20202;-80
2022/12/14 06:16:27;;;;;;;15.90;10.67;;;;;;;1.91;73.06;96954.41;5111304;27;20187;-81
2022/12/14 06:18:57;;;;;;;21.33;12.40;;;;;;;2.17;73.95;96975.31;5111623;27;20299;-79
2022/12/14 06:21:29;;;;;;;23.40;12.30;;;;;;;1.89;73.93;96949.34;5129814;27;20187;-79
2022/12/14 06:23:57;;;;;;;21.57;12.37;;;;;;;2.02;74.16;96980.66;5130917;27;20225;-81
2022/12/14 06:26:26;;;;;;;19.63;12.23;;;;;;;2.22;72.99;96976.13;5128699;27;20187;-81
2022/12/14 06:28:54;;;;;;;22.00;11.93;;;;;;;2.34;73.46;96989.56;5130076;27;20218;-80
2022/12/14 06:31:27;;;;;;;26.33;13.80;;;;;;;2.28;73.34;96992.22;5131960;27;20187;-80
2022/12/14 06:33:55;;;;;;;25.87;15.30;;;;;;;1.90;74.73;96965.47;5130489;27;20586;-79
2022/12/14 06:36:25;;;;;;;24.63;16.23;;;;;;;1.72;75.54;96976.78;5130253;27;20674;-80
2022/12/14 06:38:53;;;;;;;25.73;16.10;;;;;;;1.61;77.26;96966.72;5130721;27;20235;-80
2022/12/14 06:41:22;;;;;;;30.27;16.23;;;;;;;1.71;78.01;96985.28;5111437;27;20191;-84
2022/12/14 06:43:50;;;;;;;22.90;13.27;;;;;;;1.74;77.20;96971.66;5111332;27;20243;-79
2022/12/14 06:46:21;;;;;;;21.17;12.90;;;;;;;1.76;76.60;96978.44;5129829;27;20187;-81
2022/12/14 06:48:54;;;;;;;18.80;11.13;;;;;;;1.21;78.01;96974.84;5130119;27;20185;-80
2022/12/14 06:51:23;;;;;;;18.73;11.40;;;;;;;1.69;77.78;96978.53;5110662;27;20187;-81
2022/12/14 06:53:52;;;;;;;17.37;10.60;;;;;;;1.84;76.97;96983.44;5129018;27;20183;-77
2022/12/14 06:56:20;;;;;;;17.57;11.03;;;;;;;2.04;76.15;96977.22;5110328;27;20176;-80
2022/12/14 06:58:48;;;;;;;20.37;12.87;;;;;;;2.12;75.55;96967.72;5129292;27;20218;-81
2022/12/14 07:01:17;;;;;;;26.17;14.23;;;;;;;2.36;74.55;96962.28;5095495;27;20244;-81
2022/12/14 07:03:50;;;;;;;26.03;14.73;;;;;;;2.72;74.00;97006.84;5130381;27;20195;-80
2022/12/14 07:06:17;;;;;;;32.27;17.90;;;;;;;2.87;74.25;96998.94;5129342;27;20602;-80
2022/12/14 07:08:44;;;;;;;31.23;17.00;;;;;;;2.87;73.77;97006.63;5128342;27;20285;-81
2022/12/14 07:11:14;;;;;;;31.40;15.17;;;;;;;3.01;71.42;97009.78;5110745;27;20214;-81
2022/12/14 07:13:41;;;;;;;27.30;15.77;;;;;;;3.09;71.28;97023.28;5108906;27;20735;-81
2022/12/14 07:16:14;;;;;;;24.33;13.87;;;;;;;2.99;69.59;97006.41;5110314;27;20200;-81
2022/12/14 07:18:41;;;;;;;27.97;14.63;;;;;;;2.96;69.70;97032.06;5117939;27;20216;-81
2022/12/14 07:21:12;;;;;;;21.87;11.40;;;;;;;2.93;68.82;97029.53;5110525;27;20219;-79
2022/12/14 07:23:40;;;;;;;20.43;11.70;;;;;;;2.65;69.19;96982.28;5108440;28;20204;-81
2022/12/14 07:26:15;;;;;;;21.80;12.77;;;;;;;2.79;70.00;97007.59;5108246;28;20192;-80
2022/12/14 07:28:42;;;;;;;21.47;12.30;;;;;;;2.91;69.11;97020.19;5108098;28;20279;-81
2022/12/14 07:31:16;;;;;;;19.73;11.90;;;;;;;2.94;67.68;97013.34;5108207;28;20180;-79
2022/12/14 07:33:43;;;;;;;24.37;13.43;;;;;;;3.03;68.99;97013.16;5108256;28;20196;-79
2022/12/14 07:36:14;;;;;;;19.87;12.83;;;;;;;2.97;68.19;96982.56;5107818;28;20199;-80
2022/12/14 07:38:42;;;;;;;20.60;12.83;;;;;;;3.02;68.46;97001.25;5121618;27;20227;-81
2022/12/14 07:41:18;;;;;;;23.70;13.83;;;;;;;2.98;67.69;96998.78;5110221;27;20629;-79
2022/12/14 07:43:52;;;;;;;26.73;15.03;;;;;;;2.83;67.53;97004.97;5127993;27;20193;-80
2022/12/14 07:46:22;;;;;;;22.63;12.87;;;;;;;2.85;67.04;96992.16;5128400;27;20547;-79
2022/12/14 07:48:57;;;;;;;25.47;13.57;;;;;;;2.91;68.62;96998.03;5098727;28;20596;-82
2022/12/14 07:51:27;;;;;;;20.07;12.47;;;;;;;2.98;68.13;97014.97;5123062;27;20223;-80
2022/12/14 07:53:55;;;;;;;27.43;12.07;;;;;;;2.99;68.19;97003.84;5107495;28;20235;-79
2022/12/14 07:56:27;;;;;;;19.77;11.13;;;;;;;3.09;67.74;97025.84;5122817;27;20267;-80
2022/12/14 07:58:55;;;;;;;21.67;12.37;;;;;;;3.34;66.22;97026.25;5108057;28;20317;-76
2022/12/14 08:01:30;;;;;;;25.80;13.37;;;;;;;3.18;66.53;97035.94;5107750;28;20233;-79
2022/12/14 08:04:05;;;;;;;18.90;11.43;;;;;;;3.48;66.07;97039.69;5107444;28;20826;-78
2022/12/14 08:06:33;;;;;;;18.70;10.70;;;;;;;3.64;65.73;97047.91;5107310;28;20180;-76
2022/12/14 08:09:01;;;;;;;23.53;12.23;;;;;;;3.85;66.55;97044.94;5107210;28;20184;-78
2022/12/14 08:11:28;;;;;;;13.10;8.87;;;;;;;3.63;64.19;97030.84;5107423;28;20184;-77
2022/12/14 08:14:04;;;;;;;15.70;9.77;;;;;;;3.73;63.74;97042.63;5106337;28;20226;-76
2022/12/14 08:16:33;;;;;;;16.77;9.90;;;;;;;3.52;64.19;97043.03;5088755;28;20202;-77
2022/12/14 08:19:00;;;;;;;15.23;9.73;;;;;;;3.57;63.71;97043.75;5122357;27;20275;-78
2022/12/14 08:21:28;;;;;;;13.80;8.03;;;;;;;3.39;62.81;97042.41;5071429;28;20195;-78
2022/12/14 08:23:56;;;;;;;12.47;8.50;;;;;;;3.51;61.62;97043.88;5106827;28;20220;-78
2022/12/14 08:26:24;;;;;;;13.17;9.00;;;;;;;3.37;61.61;97043.28;5088874;28;20180;-78
2022/12/14 08:28:59;;;;;;;14.03;8.57;;;;;;;3.35;61.80;97045.03;5106711;28;20191;-80
2022/12/14 08:31:29;;;;;;;15.40;10.30;;;;;;;3.51;62.62;97051.56;5106402;28;20219;-79
2022/12/14 08:34:00;;;;;;;16.60;10.73;;;;;;;3.73;62.66;97037.50;5122875;27;20601;-80
2022/12/14 08:36:32;;;;;;;20.87;9.97;;;;;;;3.92;60.49;97062.72;5106715;28;21038;-79
2022/12/14 08:39:06;;;;;;;17.27;10.33;;;;;;;3.95;60.41;97060.13;5106351;28;20322;-78
2022/12/14 08:41:34;;;;;;;30.63;10.67;;;;;;;4.19;59.40;97063.03;5106561;28;20191;-79
2022/12/14 08:44:02;;;;;;;21.37;10.90;;;;;;;4.18;58.10;97072.47;5106308;28;20206;-80
2022/12/14 08:46:32;;;;;;;13.30;8.30;;;;;;;3.64;57.00;97020.59;5088216;28;20199;-80
2022/12/14 08:49:00;;;;;;;14.47;9.80;;;;;;;3.61;58.45;97055.63;5106270;28;20276;-80
2022/12/14 08:51:27;;;;;;;10.23;7.03;;;;;;;3.62;55.46;97034.28;5088309;28;20262;-78
2022/12/14 08:53:55;;;;;;;13.93;8.90;;;;;;;3.85;57.34;97057.75;5088126;28;20190;-79
2022/12/14 08:56:25;;;;;;;16.30;9.33;;;;;;;4.09;57.23;97062.41;5107652;28;20188;-81
2022/12/14 08:58:52;;;;;;;12.23;8.97;;;;;;;4.39;57.88;97072.00;5106416;28;20314;-80
2022/12/14 09:01:26;;;;;;;18.27;10.17;;;;;;;4.36;56.22;97038.75;5106513;28;20248;-80
2022/12/14 09:04:06;;;;;;;14.23;8.57;;;;;;;4.41;56.02;97042.06;5106922;28;20655;-79
2022/12/14 09:06:37;;;;;;;18.77;10.83;;;;;;;4.45;56.11;97046.22;5106351;28;20190;-81
2022/12/14 09:09:44;;;;;;;19.33;10.43;;;;;;;4.69;57.62;97037.16;5119983;28;20294;-80
2022/12/14 09:13:04;;;;;;;15.47;10.30;;;;;;;4.72;56.00;97034.50;5116577;28;20248;-80
2022/12/14 09:16:25;;;;;;;16.87;9.10;;;;;;;4.67;54.14;97020.97;5125795;28;20221;-81
2022/12/14 09:19:47;;;;;;;13.00;8.43;;;;;;;4.67;53.02;97014.13;5128735;27;20223;-80
2022/12/14 09:22:29;;;;;;;13.50;8.53;;;;;;;4.56;52.05;97017.78;5109864;28;20208;-81
2022/12/14 09:24:56;;;;;;;16.53;7.33;;;;;;;4.56;53.73;97003.25;5110143;28;20247;-81
2022/12/14 09:27:23;;;;;;;15.87;8.70;;;;;;;4.94;53.38;97010.91;5109470;28;20189;-80
2022/12/14 09:29:50;;;;;;;19.33;8.93;;;;;;;5.14;50.81;97012.13;5109959;28;20269;-79
2022/12/14 09:32:17;;;;;;;12.27;8.07;;;;;;;5.24;50.68;97021.28;5109644;28;20186;-80
2022/12/14 09:34:45;;;;;;;11.83;7.43;;;;;;;5.27;50.67;97011.78;5091632;28;20199;-81
2022/12/14 09:37:13;;;;;;;12.93;8.13;;;;;;;5.39;49.41;97010.63;5109660;28;20186;-81
2022/12/14 09:39:40;;;;;;;10.97;7.10;;;;;;;5.51;49.16;97012.88;5109900;28;20311;-78
2022/12/14 09:42:49;;;;;;;11.23;7.43;;;;;;;5.50;49.34;97006.88;5109462;28;20191;-81
2022/12/14 09:45:40;;;;;;;13.57;7.87;;;;;;;5.53;49.72;97017.09;5026045;28;20195;-80
2022/12/14 09:48:19;;;;;;;14.43;8.10;;;;;;;5.42;49.90;97008.00;5109827;28;20261;-79
2022/12/14 09:50:49;;;;;;;12.47;7.83;;;;;;;5.44;49.20;96995.97;5124855;27;20257;-80
2022/12/14 09:53:19;;;;;;;16.27;9.50;;;;;;;5.44;48.97;96995.97;5130256;27;20226;-79
2022/12/14 09:55:49;;;;;;;11.83;7.63;;;;;;;5.39;48.79;96987.53;5146467;27;20551;-80
2022/12/14 09:58:21;;;;;;;13.27;7.07;;;;;;;5.34;48.96;96992.78;5130037;27;20223;-78
2022/12/14 10:00:55;;;;;;;10.70;7.23;;;;;;;5.31;48.28;96989.44;5112044;27;20188;-80
2022/12/14 10:03:48;;;;;;;14.93;10.30;;;;;;;5.44;48.12;96985.69;5129908;27;20215;-79
2022/12/14 10:06:37;;;;;;;13.50;7.97;;;;;;;5.31;48.35;96985.16;5129731;27;20313;-80
2022/12/14 10:09:26;;;;;;;12.33;7.63;;;;;;;5.43;49.21;96958.31;5130131;27;20188;-80
2022/12/14 10:12:22;;;;;;;23.90;13.73;;;;;;;5.47;49.04;96949.63;5145492;27;20185;-80
2022/12/14 10:15:33;;;;;;;13.53;8.53;;;;;;;5.52;49.23;96953.75;5130303;27;20695;-82
2022/12/14 10:18:19;;;;;;;15.93;9.47;;;;;;;5.28;50.02;96961.28;5046504;28;20723;-81
2022/12/14 10:21:13;;;;;;;14.70;8.80;;;;;;;5.06;52.35;96942.19;5045952;28;20695;-81
2022/12/14 10:24:03;;;;;;;14.47;8.27;;;;;;;5.24;50.33;96927.16;5112444;27;20195;-82
2022/12/14 10:26:37;;;;;;;13.80;9.23;;;;;;;5.35;51.36;96939.69;5130067;27;21254;-81
2022/12/14 10:29:14;;;;;;;20.23;11.10;;;;;;;5.63;50.85;96930.34;5144089;27;20187;-81
2022/12/14 10:31:55;;;;;;;19.60;10.80;;;;;;;5.81;52.21;96932.41;5129694;27;20186;-81
2022/12/14 10:34:28;;;;;;;13.40;9.17;;;;;;;5.90;52.60;96931.31;5110707;27;20290;-80
2022/12/14 10:37:13;;;;;;;16.73;8.97;;;;;;;5.71;52.32;96926.69;5129436;27;20179;-81
2022/12/14 10:40:07;;;;;;;12.90;7.73;;;;;;;5.43;53.91;96914.66;5129644;27;20251;-81
2022/12/14 10:43:16;;;;;;;10.00;7.13;;;;;;;5.44;53.22;96882.97;5129732;27;20913;-81
2022/12/14 10:45:48;;;;;;;13.73;8.53;;;;;;;5.99;54.21;96908.78;5128851;27;20239;-81
2022/12/14 10:48:28;;;;;;;12.73;8.10;;;;;;;5.97;53.49;96907.97;5111278;27;20188;-80
2022/12/14 10:51:04;;;;;;;13.30;8.20;;;;;;;6.14;52.32;96918.56;5127723;27;20429;-80
2022/12/14 10:54:02;;;;;;;14.90;9.30;;;;;;;6.26;52.47;96907.94;5129022;27;20188;-81
2022/12/14 10:56:32;;;;;;;17.53;9.17;;;;;;;6.29;51.87;96902.69;5129294;27;20220;-82
2022/12/14 10:59:21;;;;;;;17.30;8.10;;;;;;;6.41;52.52;96917.72;5110247;27;20223;-83
2022/12/14 11:02:06;;;;;;;15.37;9.40;;;;;;;6.74;51.11;96913.22;5129592;27;20187;-81
2022/12/14 11:04:39;;;;;;;14.43;9.40;;;;;;;6.74;50.38;96905.50;5128975;27;20194;-81
2022/12/14 11:07:09;;;;;;;16.37;10.20;;;;;;;6.85;50.02;96908.56;5128661;27;20198;-82
2022/12/14 11:09:37;;;;;;;19.10;10.90;;;;;;;6.81;50.91;96898.44;5110742;27;20598;-80
2022/12/14 11:12:06;;;;;;;17.70;11.37;;;;;;;6.96;52.57;96906.50;5128418;27;20181;-80
2022/12/14 11:14:35;;;;;;;17.90;11.53;;;;;;;7.17;49.73;96907.50;5129219;27;20389;-82
2022/12/14 11:17:03;;;;;;;20.47;10.97;;;;;;;7.33;48.34;96916.38;5128614;27;20190;-80
2022/12/14 11:19:30;;;;;;;13.23;8.10;;;;;;;7.34;47.42;96923.19;5128569;27;20223;-81
2022/12/14 11:22:09;;;;;;;12.53;6.57;;;;;;;7.21;47.10;96921.94;5128304;27;20698;-81
2022/12/14 11:24:44;;;;;;;5.30;4.30;;;;;;;6.79;47.32;96892.50;5127981;27;20270;-79
2022/12/14 11:27:15;;;;;;;5.27;3.87;;;;;;;6.43;48.28;96921.09;5110316;27;20213;-82
2022/12/14 11:29:46;;;;;;;4.87;4.07;;;;;;;6.37;49.04;96893.00;5128321;27;20270;-79
2022/12/14 11:32:23;;;;;;;8.53;4.83;;;;;;;6.58;48.83;96897.47;5128316;27;20193;-80
2022/12/14 11:34:56;;;;;;;6.40;3.83;;;;;;;6.25;50.09;96890.81;5109547;27;20233;-81
2022/12/14 11:37:25;;;;;;;4.93;3.63;;;;;;;6.58;50.05;96894.88;5127984;27;20192;-82
2022/12/14 11:39:56;;;;;;;6.83;4.13;;;;;;;6.73;49.78;96888.41;5109599;27;20633;-82
2022/12/14 11:42:26;;;;;;;11.63;6.43;;;;;;;6.87;48.95;96883.63;5127786;27;20193;-82
2022/12/14 11:44:54;;;;;;;6.27;4.47;;;;;;;7.13;48.46;96881.00;5130883;27;20247;-81
2022/12/14 11:47:24;;;;;;;10.57;5.50;;;;;;;7.35;51.96;96881.09;5110556;27;20187;-81
2022/12/14 11:49:53;;;;;;;11.17;5.53;;;;;;;7.25;49.40;96878.00;5130096;27;20197;-80
2022/12/14 11:52:25;;;;;;;8.47;4.93;;;;;;;6.49;51.87;96877.16;5128054;27;20187;-78
2022/12/14 11:54:52;;;;;;;8.37;5.33;;;;;;;6.65;51.01;96861.25;5128265;27;20269;-82
2022/12/14 11:57:31;;;;;;;11.20;6.03;;;;;;;6.58;51.46;96855.44;5129196;27;20186;-83
2022/12/14 12:00:20;;;;;;;14.27;7.37;;;;;;;6.79;52.57;96853.91;5128391;27;20220;-81
2022/12/14 12:02:58;;;;;;;9.50;6.10;;;;;;;6.65;52.14;96817.50;5127839;27;20202;-79
2022/12/14 12:05:26;;;;;;;10.23;5.60;;;;;;;6.72;51.60;96853.25;5127830;27;20190;-78
2022/12/14 12:07:55;;;;;;;7.07;5.17;;;;;;;5.90;53.39;96831.94;5092824;27;20192;-78
2022/12/14 12:10:43;;;;;;;7.00;4.60;;;;;;;6.33;52.97;96847.69;5128087;27;20197;-82
2022/12/14 12:13:18;;;;;;;7.80;5.37;;;;;;;5.96;54.10;96846.31;5127011;27;20190;-79
2022/12/14 12:15:50;;;;;;;11.53;5.77;;;;;;;6.10;54.40;96829.59;5127237;27;20294;-80
2022/12/14 12:18:35;;;;;;;6.40;4.43;;;;;;;6.12;53.48;96832.94;5127217;27;20192;-83
2022/12/14 12:21:29;;;;;;;6.50;4.17;;;;;;;5.85;54.69;96843.25;5106778;28;20661;-77
2022/12/14 12:24:03;;;;;;;7.57;4.93;;;;;;;6.08;53.76;96849.34;5107816;28;20203;-79
2022/12/14 12:26:41;;;;;;;7.30;4.73;;;;;;;6.17;55.58;96846.50;5106522;28;20190;-82